createdAt,value
2019-01-05T00:00:03.314Z,4.08
2019-01-05T00:03:12.151Z,4.01
2019-01-05T00:06:01.382Z,3.95
2019-01-05T00:08:35.116Z,4.11
2019-01-05T00:12:09.186Z,4.13
2019-01-05T00:14:47.734Z,4.15
2019-01-05T00:17:22.849Z,4.16
2019-01-05T00:20:33.304Z,4.17
2019-01-05T00:23:39.724Z,3.94
2019-01-05T00:26:13.193Z,4.09
2019-01-05T00:29:47.552Z,4.21
2019-01-05T00:32:56.403Z,4.23
2019-01-05T00:37:38.980Z,4.24
2019-01-05T00:42:15.386Z,3.85
2019-01-05T00:46:57.000Z,4.26
2019-01-05T00:49:30.695Z,4.26
2019-01-05T00:52:05.622Z,4.27
2019-01-05T00:54:55.051Z,4.28
2019-01-05T00:57:40.652Z,4.25
2019-01-05T01:00:14.293Z,4.28
2019-01-05T01:04:50.945Z,4.33
2019-01-05T01:07:28.141Z,4.12
2019-01-05T01:10:03.516Z,4.22
2019-01-05T01:12:39.909Z,4.37
2019-01-05T01:15:15.511Z,4.37
2019-01-05T01:19:52.623Z,4.38
2019-01-05T01:22:26.514Z,4.41
2019-01-05T01:25:09.940Z,4.43
2019-01-05T01:27:46.613Z,4.44
2019-01-05T01:30:20.019Z,4.48
2019-01-05T01:32:53.991Z,4.48
2019-01-05T01:37:33.328Z,4.49
2019-01-05T01:40:11.364Z,4.53
2019-01-05T01:43:47.938Z,4.54
2019-01-05T01:46:24.012Z,4.59
2019-01-05T01:49:03.554Z,4.46
2019-01-05T01:53:45.171Z,4.63
2019-01-05T01:56:18.575Z,4.63
2019-01-05T01:58:53.269Z,4.63
2019-01-05T02:01:30.684Z,4.64
2019-01-05T02:04:04.284Z,4.66
2019-01-05T02:06:41.761Z,4.67
2019-01-05T02:09:29.712Z,4.67
2019-01-05T02:12:07.606Z,4.70
2019-01-05T02:16:47.976Z,4.71
2019-01-05T02:19:32.707Z,4.73
2019-01-05T02:24:23.717Z,4.73
2019-01-05T02:27:11.769Z,4.74
2019-01-05T02:31:04.077Z,4.74
2019-01-05T02:33:52.040Z,4.76
2019-01-05T02:38:57.523Z,4.77
2019-01-05T02:44:06.223Z,4.78
2019-01-05T02:46:58.178Z,4.75
2019-01-05T02:49:53.163Z,4.77
2019-01-05T02:53:13.639Z,4.75
2019-01-05T02:55:58.094Z,4.72
2019-01-05T02:58:46.519Z,4.58
2019-01-05T03:01:41.545Z,4.66
2019-01-05T03:06:29.584Z,4.69
2019-01-05T03:09:17.648Z,4.71
2019-01-05T03:12:11.466Z,4.71
2019-01-05T03:15:04.980Z,4.69
2019-01-05T03:20:02.708Z,4.71
2019-01-05T03:22:58.370Z,4.70
2019-01-05T03:28:06.840Z,4.68
2019-01-05T03:30:54.531Z,4.69
2019-01-05T03:35:44.505Z,4.69
2019-01-05T03:39:49.468Z,4.53
2019-01-05T03:44:35.006Z,4.67
2019-01-05T03:48:33.785Z,4.32
2019-01-05T03:54:28.682Z,4.70
2019-01-05T03:58:17.388Z,4.69
2019-01-05T04:05:14.819Z,4.66
2019-01-05T04:09:06.096Z,3.90
2019-01-05T04:11:55.614Z,4.67
2019-01-05T04:15:17.772Z,4.61
2019-01-05T04:18:13.102Z,4.66
2019-01-05T04:21:17.124Z,4.67
2019-01-05T04:25:35.164Z,4.67
2019-01-05T04:28:38.533Z,4.68
2019-01-05T04:31:46.744Z,3.70
2019-01-05T04:36:32.609Z,3.74
2019-01-05T04:40:17.459Z,4.68
2019-01-05T04:43:00.722Z,4.67
2019-01-05T04:46:06.871Z,3.10
2019-01-05T04:48:58.925Z,4.67
2019-01-05T04:52:01.043Z,4.69
2019-01-05T04:56:50.475Z,4.69
2019-01-05T05:00:24.328Z,4.70
2019-01-05T05:04:19.770Z,4.69
2019-01-05T05:09:15.979Z,4.68
2019-01-05T05:13:03.331Z,4.65
2019-01-05T05:17:56.228Z,4.65
2019-01-05T05:20:42.395Z,4.66
2019-01-05T05:25:44.518Z,4.69
2019-01-05T05:29:03.290Z,4.68
2019-01-05T05:32:11.065Z,4.68
2019-01-05T05:35:25.266Z,4.70
2019-01-05T05:40:16.670Z,4.69
2019-01-05T05:44:03.884Z,4.57
2019-01-05T05:47:19.104Z,4.73
2019-01-05T05:52:42.784Z,4.76
2019-01-05T05:56:32.834Z,4.74
2019-01-05T06:01:24.166Z,4.78
2019-01-05T06:04:51.707Z,4.79
2019-01-05T06:08:09.221Z,4.83
2019-01-05T06:15:08.786Z,4.59
2019-01-05T06:17:55.964Z,4.87
2019-01-05T06:20:48.764Z,4.94
2019-01-05T06:24:38.595Z,4.95
2019-01-05T06:27:33.752Z,4.99
2019-01-05T06:30:49.522Z,5.04
2019-01-05T06:37:33.388Z,5.07
2019-01-05T06:43:29.972Z,5.08
2019-01-05T06:48:26.869Z,4.74
2019-01-05T06:51:15.503Z,5.11
2019-01-05T07:00:18.776Z,5.13
2019-01-05T07:03:29.390Z,5.05
2019-01-05T07:09:26.641Z,5.14
2019-01-05T07:13:11.484Z,5.19
2019-01-05T07:16:08.877Z,5.20
2019-01-05T07:19:52.757Z,4.53
2019-01-05T07:23:11.861Z,5.25
2019-01-05T07:25:57.313Z,5.27
2019-01-05T07:30:44.799Z,5.28
2019-01-05T07:35:42.573Z,5.41
2019-01-05T07:38:30.962Z,5.61
2019-01-05T07:41:26.866Z,5.54
2019-01-05T07:46:57.244Z,5.76
2019-01-05T07:49:45.030Z,5.88
2019-01-05T07:53:35.632Z,5.91
2019-01-05T07:58:40.460Z,5.94
2019-01-05T08:02:44.004Z,6.00
2019-01-05T08:07:53.891Z,6.01
2019-01-05T08:10:49.543Z,5.91
2019-01-05T08:14:14.154Z,6.08
2019-01-05T08:17:09.203Z,6.13
2019-01-05T08:22:04.617Z,6.17
2019-01-05T08:25:02.505Z,6.24
2019-01-05T08:28:26.901Z,6.31
2019-01-05T08:33:23.198Z,6.30
2019-01-05T08:36:06.744Z,6.33
2019-01-05T08:40:56.176Z,6.26
2019-01-05T08:43:45.459Z,6.40
2019-01-05T08:46:30.342Z,6.39
2019-01-05T08:49:54.495Z,6.41
2019-01-05T08:56:51.112Z,6.45
2019-01-05T08:59:56.604Z,6.36
2019-01-05T09:02:41.151Z,6.53
2019-01-05T09:09:31.705Z,6.54
2019-01-05T09:12:21.025Z,6.58
2019-01-05T09:18:12.177Z,6.59
2019-01-05T09:21:01.713Z,6.61
2019-01-05T09:24:22.370Z,6.66
2019-01-05T09:27:54.996Z,6.53
2019-01-05T09:30:40.228Z,6.59
2019-01-05T09:35:38.435Z,6.77
2019-01-05T09:38:36.020Z,6.81
2019-01-05T09:41:22.541Z,6.85
2019-01-05T09:46:10.882Z,6.65
2019-01-05T09:48:57.553Z,6.91
2019-01-05T09:52:06.147Z,6.81
2019-01-05T09:55:04.803Z,6.99
2019-01-05T10:00:09.305Z,6.71
2019-01-05T10:03:04.148Z,7.03
2019-01-05T10:06:14.496Z,7.08
2019-01-05T10:09:11.416Z,7.08
2019-01-05T10:11:55.178Z,7.13
2019-01-05T10:16:52.068Z,7.14
2019-01-05T10:21:14.519Z,7.19
2019-01-05T10:26:15.932Z,6.74
2019-01-05T10:29:02.076Z,7.19
2019-01-05T10:36:02.020Z,7.35
2019-01-05T10:40:59.248Z,6.97
2019-01-05T10:44:18.685Z,7.44
2019-01-05T10:51:12.452Z,7.44
2019-01-05T10:54:03.672Z,7.48
2019-01-05T10:58:57.912Z,7.49
2019-01-05T11:01:44.177Z,6.94
2019-01-05T11:04:43.239Z,7.57
2019-01-05T11:12:35.932Z,7.60
2019-01-05T11:17:41.908Z,7.69
2019-01-05T11:20:29.178Z,7.77
2019-01-05T11:25:22.284Z,7.83
2019-01-05T11:28:07.145Z,7.94
2019-01-05T11:31:30.535Z,7.74
2019-01-05T11:36:20.244Z,8.02
2019-01-05T11:39:38.932Z,8.05
2019-01-05T11:47:27.414Z,8.04
2019-01-05T11:50:11.687Z,8.10
2019-01-05T11:52:57.847Z,8.07
2019-01-05T11:56:16.243Z,8.07
2019-01-05T11:59:12.362Z,8.06
2019-01-05T12:02:21.318Z,7.84
2019-01-05T12:05:09.619Z,8.08
2019-01-05T12:07:58.756Z,8.08
2019-01-05T12:11:09.578Z,8.07
2019-01-05T12:15:22.407Z,8.06
2019-01-05T12:19:18.088Z,8.05
2019-01-05T12:24:12.220Z,7.63
2019-01-05T12:27:30.032Z,7.95
2019-01-05T12:32:18.412Z,7.48
2019-01-05T12:35:38.980Z,7.69
2019-01-05T12:40:00.856Z,7.91
2019-01-05T12:43:43.544Z,8.00
2019-01-05T12:48:30.804Z,8.08
2019-01-05T12:54:03.427Z,8.16
2019-01-05T13:00:08.783Z,8.23
2019-01-05T13:07:01.402Z,8.14
2019-01-05T13:09:50.323Z,8.17
2019-01-05T13:14:44.145Z,8.27
2019-01-05T13:18:02.807Z,8.25
2019-01-05T13:20:52.353Z,8.23
2019-01-05T13:23:43.543Z,8.19
2019-01-05T13:28:37.907Z,8.05
2019-01-05T13:31:53.981Z,8.14
2019-01-05T13:34:42.560Z,7.73
2019-01-05T13:37:38.207Z,8.17
2019-01-05T13:42:28.946Z,8.19
2019-01-05T13:47:25.060Z,8.16
2019-01-05T13:50:25.442Z,8.17
2019-01-05T13:53:10.994Z,8.08
2019-01-05T13:56:06.766Z,8.17
2019-01-05T13:58:51.999Z,8.14
2019-01-05T14:01:25.791Z,8.16
2019-01-05T14:04:01.992Z,8.17
2019-01-05T14:06:35.656Z,8.18
2019-01-05T14:09:16.695Z,8.19
2019-01-05T14:11:54.347Z,8.18
2019-01-05T14:16:34.034Z,8.20
2019-01-05T14:19:07.448Z,8.24
2019-01-05T14:21:41.082Z,8.24
2019-01-05T14:24:14.928Z,8.26
2019-01-05T14:26:57.262Z,8.27
2019-01-05T14:29:32.856Z,8.28
2019-01-05T14:34:12.520Z,8.28
2019-01-05T14:36:50.708Z,8.25
2019-01-05T14:39:24.167Z,8.23
2019-01-05T14:42:05.384Z,8.20
2019-01-05T14:44:41.461Z,8.18
2019-01-05T14:49:18.538Z,8.18
2019-01-05T14:51:51.855Z,8.18
2019-01-05T14:54:26.154Z,8.06
2019-01-05T14:57:03.359Z,8.15
2019-01-05T14:59:37.254Z,8.15
2019-01-05T15:02:10.645Z,8.12
2019-01-05T15:06:51.117Z,8.08
2019-01-05T15:10:26.526Z,7.96
2019-01-05T15:13:31.912Z,8.05
2019-01-05T15:16:05.772Z,8.03
2019-01-05T15:18:39.396Z,8.03
2019-01-05T15:23:14.736Z,8.06
2019-01-05T15:25:49.266Z,8.04
2019-01-05T15:28:23.483Z,8.04
2019-01-05T15:31:30.489Z,8.03
2019-01-05T15:36:08.548Z,8.05
2019-01-05T15:38:41.943Z,8.02
2019-01-05T15:41:46.231Z,8.00
2019-01-05T15:44:19.840Z,7.99
2019-01-05T15:46:53.874Z,7.75
2019-01-05T15:49:29.913Z,7.98
2019-01-05T15:52:14.745Z,7.98
2019-01-05T15:56:52.299Z,7.96
2019-01-05T15:59:44.736Z,7.95
2019-01-05T16:02:19.258Z,7.81
2019-01-05T16:05:11.222Z,7.92
2019-01-05T16:07:45.071Z,7.92
2019-01-05T16:10:20.107Z,7.92
2019-01-05T16:13:27.362Z,7.92
2019-01-05T16:16:00.193Z,7.92
2019-01-05T16:19:35.540Z,6.66
2019-01-05T16:22:09.381Z,7.91
2019-01-05T16:24:44.620Z,7.92
2019-01-05T16:27:49.703Z,7.91
2019-01-05T16:30:36.160Z,7.89
2019-01-05T16:33:09.556Z,7.88
2019-01-05T16:35:46.089Z,7.89
2019-01-05T16:38:24.910Z,7.87
2019-01-05T16:41:02.071Z,7.86
2019-01-05T16:43:35.286Z,7.85
2019-01-05T16:46:08.958Z,7.86
2019-01-05T16:50:44.459Z,7.43
2019-01-05T16:53:18.182Z,7.81
2019-01-05T16:55:51.358Z,7.80
2019-01-05T16:58:25.509Z,7.79
2019-01-05T17:02:59.864Z,7.76
2019-01-05T17:05:34.001Z,7.59
2019-01-05T17:10:09.367Z,7.69
2019-01-05T17:12:50.462Z,7.64
2019-01-05T17:15:24.712Z,7.64
2019-01-05T17:18:05.831Z,7.63
2019-01-05T17:20:41.016Z,7.61
2019-01-05T17:23:20.688Z,7.60
2019-01-05T17:25:59.769Z,7.62
2019-01-05T17:28:33.627Z,7.62
2019-01-05T17:31:06.581Z,7.62
2019-01-05T17:33:40.305Z,7.61
2019-01-05T17:36:32.266Z,7.58
2019-01-05T17:39:39.289Z,7.57
2019-01-05T17:44:16.550Z,7.56
2019-01-05T17:46:52.079Z,7.32
2019-01-05T17:51:29.830Z,7.56
2019-01-05T17:54:03.389Z,7.52
2019-01-05T17:56:46.626Z,7.53
2019-01-05T18:01:26.362Z,7.53
2019-01-05T18:06:03.135Z,7.51
2019-01-05T18:08:36.808Z,7.46
2019-01-05T18:11:11.208Z,7.22
2019-01-05T18:13:45.663Z,7.45
2019-01-05T18:16:19.088Z,7.43
2019-01-05T18:18:52.744Z,7.45
2019-01-05T18:21:26.865Z,7.44
2019-01-05T18:24:01.102Z,7.45
2019-01-05T18:28:38.947Z,7.43
2019-01-05T18:31:27.281Z,7.43
2019-01-05T18:34:04.196Z,7.42
2019-01-05T18:36:37.920Z,7.43
2019-01-05T18:41:16.381Z,7.44
2019-01-05T18:45:56.994Z,7.43
2019-01-05T18:48:32.302Z,7.42
2019-01-05T18:53:11.640Z,6.89
2019-01-05T18:56:03.054Z,7.42
2019-01-05T19:00:43.902Z,7.42
2019-01-05T19:03:22.236Z,7.30
2019-01-05T19:06:09.918Z,7.41
2019-01-05T19:08:43.297Z,7.29
2019-01-05T19:11:20.661Z,7.38
2019-01-05T19:15:56.078Z,7.28
2019-01-05T19:20:37.082Z,7.39
2019-01-05T19:25:11.445Z,7.37
2019-01-05T19:27:44.625Z,7.37
2019-01-05T19:30:18.390Z,7.36
2019-01-05T19:32:51.432Z,7.36
2019-01-05T19:35:25.053Z,7.35
2019-01-05T19:38:02.496Z,7.34
2019-01-05T19:41:39.026Z,7.33
2019-01-05T19:45:17.235Z,7.33
2019-01-05T19:49:52.619Z,7.30
2019-01-05T19:52:25.925Z,7.32
2019-01-05T19:55:08.591Z,7.31
2019-01-05T19:57:48.984Z,7.30
2019-01-05T20:00:26.494Z,7.30
2019-01-05T20:03:06.789Z,7.29
2019-01-05T20:06:47.306Z,7.30
2019-01-05T20:11:26.316Z,7.26
2019-01-05T20:14:01.411Z,7.29
2019-01-05T20:16:35.918Z,6.86
2019-01-05T20:19:09.728Z,7.29
2019-01-05T20:21:43.189Z,7.29
2019-01-05T20:24:19.152Z,7.28
2019-01-05T20:26:55.119Z,7.28
2019-01-05T20:31:33.334Z,7.17
2019-01-05T20:34:13.269Z,7.28
2019-01-05T20:36:51.475Z,7.27
2019-01-05T20:39:30.580Z,7.16
2019-01-05T20:42:04.497Z,7.26
2019-01-05T20:44:40.131Z,7.26
2019-01-05T20:47:16.000Z,7.25
2019-01-05T20:49:48.397Z,7.24
2019-01-05T20:54:26.254Z,7.24
2019-01-05T20:57:05.400Z,7.23
2019-01-05T20:59:38.890Z,7.23
2019-01-05T21:02:12.408Z,7.22
2019-01-05T21:04:45.891Z,7.22
2019-01-05T21:07:19.745Z,7.22
2019-01-05T21:09:58.954Z,7.22
2019-01-05T21:13:35.333Z,7.23
2019-01-05T21:18:12.140Z,7.21
2019-01-05T21:20:48.459Z,7.19
2019-01-05T21:23:22.086Z,7.19
2019-01-05T21:28:00.526Z,7.21
2019-01-05T21:30:40.237Z,7.19
2019-01-05T21:35:15.482Z,7.19
2019-01-05T21:38:49.713Z,7.21
2019-01-05T21:41:37.180Z,7.21
2019-01-05T21:44:13.142Z,7.08
2019-01-05T21:46:46.459Z,7.10
2019-01-05T21:51:24.158Z,7.19
2019-01-05T21:55:00.385Z,7.20
2019-01-05T21:57:35.298Z,7.19
2019-01-05T22:00:15.704Z,7.17
2019-01-05T22:03:22.353Z,7.15
2019-01-05T22:05:54.701Z,7.14
2019-01-05T22:08:31.610Z,7.13
2019-01-05T22:11:23.253Z,7.13
2019-01-05T22:13:58.984Z,7.11
2019-01-05T22:16:32.471Z,7.11
2019-01-05T22:19:08.103Z,7.10
2019-01-05T22:21:55.488Z,7.09
2019-01-05T22:24:29.095Z,7.09
2019-01-05T22:27:08.782Z,7.08
2019-01-05T22:29:53.925Z,7.08
2019-01-05T22:34:29.690Z,7.08
2019-01-05T22:37:11.808Z,6.75
2019-01-05T22:39:48.200Z,7.06
2019-01-05T22:43:27.638Z,7.06
2019-01-05T22:45:58.676Z,6.92
2019-01-05T22:48:32.014Z,7.04
2019-01-05T22:51:10.791Z,7.04
2019-01-05T22:53:44.228Z,7.03
2019-01-05T22:58:23.593Z,7.01
2019-01-05T23:03:01.361Z,6.99
2019-01-05T23:06:42.866Z,6.98
2019-01-05T23:09:49.727Z,6.96
2019-01-05T23:12:25.300Z,6.74
2019-01-05T23:15:03.612Z,6.95
2019-01-05T23:17:43.111Z,6.94
2019-01-05T23:20:16.543Z,6.95
2019-01-05T23:22:50.386Z,6.93
2019-01-05T23:27:25.408Z,6.93
2019-01-05T23:31:01.890Z,6.92
2019-01-05T23:33:35.212Z,6.90
2019-01-05T23:36:08.576Z,6.68
2019-01-05T23:38:49.778Z,6.90
2019-01-05T23:41:31.295Z,6.85
2019-01-05T23:44:09.291Z,6.88
2019-01-05T23:46:42.751Z,6.89
2019-01-05T23:49:29.964Z,6.89
2019-01-05T23:52:03.146Z,6.90
2019-01-05T23:54:37.985Z,6.90
2019-01-05T23:57:11.402Z,6.67
2019-01-05T23:59:47.903Z,6.91
